Addison, Michigan
Current Conditions -  °F | °C
As of 11:35 AM on Wednesday 22 Oct 2014 (Local Time) from KJYM Reporting Station
Overcast Overcast  
Wind Chill:   Ceiling: 1300
Heat Index:   Visibility: 10mi
Dew Point:   Wind: 6mph
Humidity: 85%   Direction: 50°NE
Pressure: 30.35"   Gusts: NA
Location:  41.99°N, 84.35°W
Report Text: KJYM 221535Z AUTO 05005KT 10SM OVC013 07/04 A3035 RMK AO2 T00670043
Loading
Personal Weather Stations






























Interactive Weather Map
Tropical Storm Tracking
New forecast layout! Learn more

10-Day Weather Forecast

Advertisements
Track Severe Weather on mobile